createdAt,value
2022-12-27T00:00:27.913Z,98160.16
2022-12-27T00:03:36.972Z,98183.72
2022-12-27T00:06:42.774Z,98175.38
2022-12-27T00:09:49.401Z,98176.84
2022-12-27T00:12:55.210Z,98165.41
2022-12-27T00:16:07.452Z,98160.16
2022-12-27T00:19:15.876Z,98176.19
2022-12-27T00:22:22.933Z,98173.06
2022-12-27T00:25:28.654Z,98166.38
2022-12-27T00:28:37.400Z,98165.91
2022-12-27T00:31:43.831Z,98161.47
2022-12-27T00:34:53.066Z,98153.78
2022-12-27T00:38:00.342Z,98151.31
2022-12-27T00:41:08.792Z,98151.31
2022-12-27T00:44:14.383Z,98142.81
2022-12-27T00:47:21.007Z,98157.72
2022-12-27T00:50:29.434Z,98150.19
2022-12-27T00:53:37.908Z,98150.66
2022-12-27T00:56:43.625Z,98147.84
2022-12-27T00:59:51.480Z,98146.91
2022-12-27T01:02:57.345Z,98143.28
2022-12-27T01:06:14.608Z,98155.56
2022-12-27T01:09:20.385Z,98162.63
2022-12-27T01:12:27.146Z,98159.34
2022-12-27T01:15:33.275Z,98163.75
2022-12-27T01:18:40.003Z,98164.09
2022-12-27T01:21:48.347Z,98161.31
2022-12-27T01:24:55.032Z,98156.25
2022-12-27T01:28:00.670Z,98175.53
2022-12-27T01:31:13.081Z,98172.59
2022-12-27T01:34:20.280Z,98188.81
2022-12-27T01:37:31.667Z,98191.72
2022-12-27T01:40:39.502Z,98202.19
2022-12-27T01:43:44.368Z,98204.34
2022-12-27T01:46:50.607Z,98206.63
2022-12-27T01:50:09.319Z,98206.97
2022-12-27T01:53:24.466Z,98224.47
2022-12-27T01:56:35.080Z,98239.38
2022-12-27T01:59:42.611Z,98229.38
2022-12-27T02:02:49.765Z,98247.41
2022-12-27T02:05:56.467Z,98257.41
2022-12-27T02:09:16.756Z,98259.19
2022-12-27T02:12:24.681Z,98252.81
2022-12-27T02:15:31.157Z,98250.84
2022-12-27T02:18:37.683Z,98250.03
2022-12-27T02:22:25.364Z,98266.22
2022-12-27T02:26:16.286Z,98263.78
2022-12-27T02:29:55.276Z,98253.28
2022-12-27T02:33:09.722Z,98265.09
2022-12-27T02:36:27.562Z,98271.47
2022-12-27T02:39:38.954Z,98283.78
2022-12-27T02:42:58.279Z,98278.69
2022-12-27T02:46:31.741Z,98284.94
2022-12-27T02:49:58.529Z,98293.09
2022-12-27T02:53:20.331Z,98295.72
2022-12-27T02:57:07.859Z,98300.97
2022-12-27T03:00:33.938Z,98293.41
2022-12-27T03:04:09.473Z,98304.41
2022-12-27T03:07:34.760Z,98306.50
2022-12-27T03:11:07.869Z,98304.72
2022-12-27T03:14:39.959Z,98318.13
2022-12-27T03:18:05.011Z,98314.22
2022-12-27T03:21:33.164Z,98299.78
2022-12-27T03:24:56.351Z,98327.44
2022-12-27T03:28:22.043Z,98329.72
2022-12-27T03:32:00.084Z,98332.81
2022-12-27T03:35:16.297Z,98337.88
2022-12-27T03:38:24.843Z,98354.72
2022-12-27T03:41:51.581Z,98367.66
2022-12-27T03:44:59.345Z,98373.84
2022-12-27T03:48:07.356Z,98371.34
2022-12-27T03:51:21.449Z,98368.25
2022-12-27T03:54:36.946Z,98379.94
2022-12-27T03:57:44.201Z,98397.16
2022-12-27T04:00:50.300Z,98409.63
2022-12-27T04:03:56.913Z,98395.31
2022-12-27T04:07:05.848Z,98408.00
2022-12-27T04:10:28.588Z,98430.47
2022-12-27T04:13:46.814Z,98434.09
2022-12-27T04:17:05.899Z,98436.34
2022-12-27T04:20:24.731Z,98439.91
2022-12-27T04:23:43.519Z,98448.06
2022-12-27T04:27:04.093Z,98452.94
2022-12-27T04:30:25.068Z,98458.59
2022-12-27T04:33:43.095Z,98462.09
2022-12-27T04:36:50.739Z,98459.75
2022-12-27T04:40:08.596Z,98463.94
2022-12-27T04:43:41.665Z,98462.81
2022-12-27T04:46:59.828Z,98470.09
2022-12-27T04:50:25.619Z,98490.53
2022-12-27T04:53:45.380Z,98495.50
2022-12-27T04:56:51.967Z,98490.72
2022-12-27T05:00:12.564Z,98496.75
2022-12-27T05:03:24.071Z,98510.75
2022-12-27T05:06:29.796Z,98526.00
2022-12-27T05:09:48.950Z,98517.09
2022-12-27T05:13:07.375Z,98521.81
2022-12-27T05:16:17.390Z,98535.25
2022-12-27T05:19:23.030Z,98539.25
2022-12-27T05:22:41.857Z,98534.06
2022-12-27T05:25:53.103Z,98568.34
2022-12-27T05:29:46.508Z,98559.44
2022-12-27T05:33:00.716Z,98556.69
2022-12-27T05:36:10.801Z,98580.03
2022-12-27T05:39:16.815Z,98582.34
2022-12-27T05:42:25.501Z,98589.75
2022-12-27T05:45:32.826Z,98598.56
2022-12-27T05:48:42.459Z,98609.13
2022-12-27T05:51:47.998Z,98613.66
2022-12-27T05:54:54.424Z,98625.03
2022-12-27T05:58:00.077Z,98614.31
2022-12-27T06:01:12.686Z,98624.34
2022-12-27T06:04:20.956Z,98636.44
2022-12-27T06:07:27.374Z,98644.53
2022-12-27T06:10:33.028Z,98644.41
2022-12-27T06:13:42.069Z,98630.38
2022-12-27T06:16:50.019Z,98664.50
2022-12-27T06:19:59.090Z,98660.81
2022-12-27T06:23:05.172Z,98674.69
2022-12-27T06:26:16.120Z,98687.06
2022-12-27T06:29:27.635Z,98700.66
2022-12-27T06:32:34.851Z,98709.03
2022-12-27T06:35:43.109Z,98717.13
2022-12-27T06:38:52.632Z,98728.16
2022-12-27T06:41:59.238Z,98731.00
2022-12-27T06:45:06.564Z,98745.63
2022-12-27T06:48:12.324Z,98748.22
2022-12-27T06:51:24.364Z,98759.06
2022-12-27T06:54:30.842Z,98761.22
2022-12-27T06:57:47.457Z,98763.97
2022-12-27T07:00:58.509Z,98779.38
2022-12-27T07:04:05.002Z,98787.78
2022-12-27T07:07:15.829Z,98797.72
2022-12-27T07:10:22.666Z,98808.91
2022-12-27T07:13:28.372Z,98823.72
2022-12-27T07:16:35.139Z,98830.13
2022-12-27T07:19:40.946Z,98827.75
2022-12-27T07:22:49.955Z,98832.88
2022-12-27T07:25:55.534Z,98828.88
2022-12-27T07:29:04.726Z,98853.47
2022-12-27T07:32:10.315Z,98856.28
2022-12-27T07:35:16.874Z,98874.88
2022-12-27T07:38:25.051Z,98881.59
2022-12-27T07:41:31.422Z,98893.19
2022-12-27T07:44:39.376Z,98902.41
2022-12-27T07:47:45.928Z,98911.63
2022-12-27T07:50:58.404Z,98904.06
2022-12-27T07:54:08.136Z,98923.44
2022-12-27T07:57:13.738Z,98924.91
2022-12-27T08:00:21.056Z,98933.88
2022-12-27T08:03:26.905Z,98943.44
2022-12-27T08:06:37.663Z,98944.06
2022-12-27T08:09:52.288Z,98933.69
2022-12-27T08:12:59.447Z,98950.47
2022-12-27T08:16:05.776Z,98958.06
2022-12-27T08:19:12.487Z,98966.22
2022-12-27T08:22:18.236Z,98976.28
2022-12-27T08:25:28.600Z,98980.41
2022-12-27T08:28:34.157Z,98981.94
2022-12-27T08:31:40.791Z,98977.34
2022-12-27T08:34:46.556Z,98983.41
2022-12-27T08:37:53.153Z,98987.31
2022-12-27T08:41:04.812Z,98984.81
2022-12-27T08:44:12.876Z,99001.16
2022-12-27T08:47:19.644Z,99011.31
2022-12-27T08:50:26.014Z,99010.53
2022-12-27T08:53:31.729Z,99014.69
2022-12-27T08:56:41.825Z,99033.84
2022-12-27T08:59:47.565Z,99034.16
2022-12-27T09:02:54.919Z,99023.25
2022-12-27T09:06:12.055Z,99033.72
2022-12-27T09:09:18.893Z,99032.44
2022-12-27T09:12:27.368Z,99044.06
2022-12-27T09:15:34.278Z,99042.97
2022-12-27T09:18:40.754Z,99035.75
2022-12-27T09:21:47.565Z,99038.50
2022-12-27T09:24:53.248Z,99036.56
2022-12-27T09:28:02.650Z,99030.31
2022-12-27T09:31:13.129Z,99013.63
2022-12-27T09:34:19.863Z,99016.09
2022-12-27T09:37:25.451Z,99017.94
2022-12-27T09:40:32.297Z,99022.72
2022-12-27T09:43:55.591Z,99019.03
2022-12-27T09:47:16.035Z,99027.66
2022-12-27T09:50:31.224Z,99022.31
2022-12-27T09:53:52.402Z,99027.94
2022-12-27T09:57:19.483Z,99018.44
2022-12-27T10:00:35.232Z,99016.53
2022-12-27T10:03:41.773Z,99018.59
2022-12-27T10:07:14.807Z,99015.97
2022-12-27T10:10:38.750Z,99019.41
2022-12-27T10:13:59.832Z,99019.72
2022-12-27T10:17:28.063Z,99010.63
2022-12-27T10:20:58.094Z,99015.13
2022-12-27T10:24:21.189Z,99010.09
2022-12-27T10:27:31.821Z,99009.16
2022-12-27T10:30:38.921Z,99014.50
2022-12-27T10:33:51.380Z,99012.00
2022-12-27T10:36:57.032Z,99025.44
2022-12-27T10:40:19.152Z,99025.34
2022-12-27T10:43:36.371Z,99023.78
2022-12-27T10:46:52.564Z,99030.47
2022-12-27T10:50:18.775Z,99027.81
2022-12-27T10:53:42.050Z,99013.84
2022-12-27T10:56:47.994Z,99025.00
2022-12-27T11:00:19.652Z,99021.63
2022-12-27T11:03:26.353Z,99016.69
2022-12-27T11:06:35.301Z,99009.94
2022-12-27T11:09:50.163Z,99008.97
2022-12-27T11:13:03.859Z,99009.78
2022-12-27T11:16:23.131Z,99008.22
2022-12-27T11:19:31.387Z,99013.72
2022-12-27T11:22:48.279Z,99009.34
2022-12-27T11:25:59.716Z,99002.66
2022-12-27T11:29:07.188Z,99014.44
2022-12-27T11:32:14.183Z,99016.06
2022-12-27T11:35:24.217Z,99019.28
2022-12-27T11:38:37.897Z,99009.59
2022-12-27T11:41:55.792Z,99017.59
2022-12-27T11:45:15.146Z,99028.44
2022-12-27T11:48:31.006Z,99026.50
2022-12-27T11:52:33.836Z,99013.28
2022-12-27T11:56:06.845Z,99016.66
2022-12-27T11:59:42.029Z,99029.28
2022-12-27T12:03:27.127Z,99022.16
2022-12-27T12:06:55.189Z,99029.13
2022-12-27T12:10:24.375Z,99035.06
2022-12-27T12:14:19.520Z,99022.41
2022-12-27T12:18:12.538Z,99020.53
2022-12-27T12:21:29.338Z,99024.22
2022-12-27T12:25:09.189Z,99016.22
2022-12-27T12:29:07.727Z,99012.47
2022-12-27T12:32:34.932Z,99024.44
2022-12-27T12:36:07.323Z,99019.97
2022-12-27T12:39:32.957Z,99025.44
2022-12-27T12:42:56.783Z,99024.88
2022-12-27T12:46:32.323Z,99014.66
2022-12-27T12:50:24.672Z,99025.72
2022-12-27T12:54:04.668Z,99030.69
2022-12-27T12:57:35.452Z,99025.63
2022-12-27T13:01:18.213Z,99031.16
2022-12-27T13:05:03.431Z,99033.59
2022-12-27T13:08:26.210Z,99025.16
2022-12-27T13:11:59.370Z,99051.13
2022-12-27T13:15:31.997Z,99051.97
2022-12-27T13:19:00.161Z,99055.28
2022-12-27T13:22:20.430Z,99052.78
2022-12-27T13:25:45.924Z,99044.88
2022-12-27T13:29:18.857Z,99049.34
2022-12-27T13:32:46.413Z,99061.56
2022-12-27T13:36:19.561Z,99065.56
2022-12-27T13:40:00.560Z,99065.88
2022-12-27T13:43:51.178Z,99064.09
2022-12-27T13:47:41.635Z,99077.13
2022-12-27T13:51:14.472Z,99072.69
2022-12-27T13:55:14.671Z,99071.59
2022-12-27T13:59:03.148Z,99066.84
2022-12-27T14:03:00.584Z,99081.41
2022-12-27T14:06:37.422Z,99077.84
2022-12-27T14:10:15.256Z,99086.31
2022-12-27T14:13:30.701Z,99094.66
2022-12-27T14:17:12.503Z,99089.50
2022-12-27T14:20:47.681Z,99092.72
2022-12-27T14:24:23.397Z,99099.25
2022-12-27T14:28:39.987Z,99085.81
2022-12-27T14:32:34.658Z,99089.91
2022-12-27T14:36:37.563Z,99090.09
2022-12-27T14:40:37.836Z,99094.00
2022-12-27T14:44:38.230Z,99110.00
2022-12-27T14:48:28.865Z,99106.38
2022-12-27T14:52:24.336Z,99120.31
2022-12-27T14:55:59.000Z,99121.50
2022-12-27T14:59:40.062Z,99124.81
2022-12-27T15:03:18.991Z,99120.91
2022-12-27T15:07:02.164Z,99121.75
2022-12-27T15:10:28.433Z,99129.59
2022-12-27T15:14:06.498Z,99127.41
2022-12-27T15:17:37.361Z,99132.63
2022-12-27T15:21:13.939Z,99144.47
2022-12-27T15:24:43.234Z,99142.00
2022-12-27T15:28:09.486Z,99149.56
2022-12-27T15:31:37.722Z,99151.13
2022-12-27T15:35:06.389Z,99146.38
2022-12-27T15:38:21.406Z,99148.38
2022-12-27T15:41:57.857Z,99141.53
2022-12-27T15:45:27.051Z,99145.91
2022-12-27T15:49:19.306Z,99148.28
2022-12-27T15:52:56.236Z,99151.69
2022-12-27T15:56:44.726Z,99155.72
2022-12-27T15:59:56.867Z,99150.88
2022-12-27T16:03:06.023Z,99154.78
2022-12-27T16:06:52.950Z,99158.91
2022-12-27T16:09:59.551Z,99167.78
2022-12-27T16:13:39.366Z,99159.28
2022-12-27T16:17:01.498Z,99168.28
2022-12-27T16:20:20.864Z,99170.28
2022-12-27T16:23:34.319Z,99169.09
2022-12-27T16:27:05.776Z,99170.88
2022-12-27T16:30:15.580Z,99126.78
2022-12-27T16:33:44.204Z,99158.66
2022-12-27T16:37:04.840Z,99148.97
2022-12-27T16:40:42.067Z,99121.38
2022-12-27T16:54:11.448Z,99136.06
2022-12-27T17:08:29.462Z,99154.88
2022-12-27T17:18:40.931Z,99151.22
2022-12-27T17:21:56.839Z,99159.13
2022-12-27T17:25:22.948Z,99168.22
2022-12-27T17:28:55.133Z,99162.19
2022-12-27T17:32:28.486Z,99155.72
2022-12-27T17:36:09.237Z,99156.84
2022-12-27T17:39:43.066Z,99167.25
2022-12-27T17:43:28.048Z,99176.66
2022-12-27T17:47:09.126Z,99163.38
2022-12-27T17:50:40.292Z,99143.59
2022-12-27T17:54:11.040Z,99208.78
2022-12-27T17:57:37.327Z,99168.47
2022-12-27T18:01:01.524Z,99207.09
2022-12-27T18:04:23.503Z,99197.84
2022-12-27T18:07:48.150Z,99177.22
2022-12-27T18:11:01.197Z,99193.75
2022-12-27T18:14:17.429Z,99217.44
2022-12-27T18:17:30.133Z,99185.47
2022-12-27T18:20:46.041Z,99201.81
2022-12-27T18:23:57.326Z,99157.97
2022-12-27T18:27:09.228Z,99203.28
2022-12-27T18:30:21.478Z,99186.81
2022-12-27T18:33:44.494Z,99198.06
2022-12-27T18:37:05.981Z,99211.69
2022-12-27T18:40:26.273Z,99203.56
2022-12-27T18:43:36.894Z,99198.00
2022-12-27T18:46:57.793Z,99176.75
2022-12-27T18:50:09.062Z,99198.81
2022-12-27T18:53:38.134Z,99230.09
2022-12-27T18:56:47.350Z,99221.06
2022-12-27T19:00:25.295Z,99175.09
2022-12-27T19:03:41.055Z,99184.34
2022-12-27T19:07:01.360Z,99229.38
2022-12-27T19:10:32.252Z,99184.91
2022-12-27T20:14:18.085Z,99253.69
2022-12-27T20:17:28.965Z,99268.03
2022-12-27T20:20:41.267Z,99281.34
2022-12-27T20:23:56.270Z,99219.53
2022-12-27T20:46:24.043Z,99248.09
2022-12-27T21:40:08.255Z,99236.75
2022-12-27T21:43:22.480Z,99285.16
2022-12-27T21:46:32.259Z,99224.69
2022-12-27T21:49:43.332Z,99216.91
2022-12-27T21:56:44.196Z,99265.72
2022-12-27T21:59:53.546Z,99222.91
2022-12-27T22:02:59.722Z,99287.34
2022-12-27T22:06:14.864Z,99270.59
2022-12-27T22:09:24.062Z,99276.84
2022-12-27T22:12:33.226Z,99226.16
2022-12-27T22:19:44.478Z,99224.63
2022-12-27T22:26:39.916Z,99211.75
2022-12-27T22:29:54.723Z,99243.00
2022-12-27T22:33:02.797Z,99276.31
2022-12-27T22:47:49.387Z,99273.88
2022-12-27T22:55:05.688Z,99243.28
2022-12-27T22:58:23.974Z,99280.69
2022-12-27T23:01:33.295Z,99245.88
2022-12-27T23:04:50.418Z,99270.00
2022-12-27T23:08:05.295Z,99246.34
2022-12-27T23:31:05.359Z,99253.00
2022-12-27T23:34:16.291Z,99266.22
2022-12-27T23:37:25.711Z,99263.00
2022-12-27T23:40:38.290Z,99240.06
2022-12-27T23:51:05.966Z,99221.81
2022-12-27T23:54:17.356Z,99193.69
